METAR Data
IDs: Format: Raw Decoded Include TAF

Data at: 1327 UTC 07 Jul 2020

KTRI 071253Z 00000KT 10SM SCT160 BKN250 23/18 A3007 RMK AO2 SLP157 T02280183
KTRI 071153Z 00000KT 10SM SCT200 BKN250 21/18 A3007 RMK AO2 SLP154 T02110178 10211 20178 53002
KTRI 071053Z 00000KT 10SM SCT200 BKN250 18/17 A3006 RMK AO2 SLP154 T01830172
KTRI 070953Z 00000KT 10SM BKN250 19/17 A3006 RMK AO2 SLP152 T01890172
KTRI 070853Z 00000KT 10SM SCT250 18/17 A3006 RMK AO2 SLP153 T01780167 58006
KTRI 070753Z 00000KT 10SM BKN250 19/17 A3007 RMK AO2 SLP154 T01890172
KTRI 070653Z 00000KT 10SM BKN250 20/17 A3008 RMK AO2 SLP159 T02000172
KTRI 070553Z 02003KT 10SM FEW250 19/17 A3008 RMK AO2 SLP158 T01940172 10289 20194 58002
KTRI 070453Z 00000KT 10SM FEW250 22/17 A3008 RMK AO2 SLP158 T02170172 403280189
KTRI 070353Z 00000KT 10SM FEW250 22/18 A3009 RMK AO2 SLP161 T02170178
KTRI 070253Z 01003KT 10SM CLR 22/17 A3008 RMK AO2 SLP160 T02170172 53013
KTRI 070153Z 00000KT 10SM FEW150 25/17 A3007 RMK AO2 SLP154 T02500167
KTRI 070053Z 10004KT 10SM FEW035 FEW150 27/17 A3005 RMK AO2 SLP150 T02670167
KTRI 062353Z 11007KT 10SM FEW030 SCT150 BKN250 29/16 A3004 RMK AO2 SLP146 T02890161 10328 20289 50002
KTRI 062253Z 10008KT 10SM SCT150 BKN250 30/15 A3005 RMK AO2 SLP147 T03000150
KTRI 062153Z 14007KT 10SM FEW040 SCT150 BKN250 31/16 A3004 RMK AO2 SLP145 T03060156
KTRI 062053Z 15007KT 10SM FEW040 SCT080 BKN150 31/17 A3004 RMK AO2 SLP144 T03060167 58012
KTRI 061953Z 12006KT 10SM SCT070 BKN250 32/15 A3005 RMK AO2 SLP149 T03220150
KTRI 061853Z 12004KT 10SM SCT060 BKN250 32/17 A3006 RMK AO2 SLP151 T03220167
KTRI 061753Z VRB03KT 10SM SCT055 BKN250 32/18 A3007 RMK AO2 SLP155 T03170178 10317 20217 58013
KTRI 061653Z VRB03KT 10SM FEW050 SCT150 SCT250 31/18 A3010 RMK AO2 SLP164 T03060178
KTRI 061553Z 10SM FEW045 FEW160 SCT250 29/17 A3010 RMK AO2 SLP167 T02940172
KTRI 061453Z VRB03KT 10SM FEW160 FEW250 28/20 A3011 RMK AO2 SLP170 T02780200 51006
KTRI 061353Z 03003KT 10SM FEW250 26/20 A3011 RMK AO2 SLP168 T02610200
KTRI 061253Z 00000KT 10SM SCT250 24/19 A3010 RMK AO2 SLP167 T02390194
KTRI 061153Z 00000KT 10SM SCT180 BKN250 22/19 A3009 RMK AO2 SLP164 T02170194 10217 20189 51017
KTRI 061053Z 00000KT 10SM BKN250 19/18 A3009 RMK AO2 SLP162 T01940183
KTRI 060953Z 00000KT 5SM SCT250 19/18 A3006 RMK AO2 SLP156 T01890178
KTRI 060853Z 00000KT 6SM BR FEW250 20/18 A3004 RMK AO2 SLP149 T02000183 55001
KTRI 060753Z 00000KT 6SM BR SCT250 20/19 A3003 RMK AO2 SLP145 T02000189
KTRI 060653Z 07003KT 6SM BR BKN250 20/19 A3003 RMK AO2 SLP142 T02000189
KTRI 060553Z 00000KT 8SM BKN250 21/19 A3004 RMK AO2 SLP145 T02110194 10267 20206 58003
KTRI 060453Z 00000KT 10SM BKN250 21/19 A3006 RMK AO2 SLP150 T02110194 403280189
KTRI 060353Z 00000KT 9SM BKN250 22/20 A3006 RMK AO2 SLP150 T02170200
KTRI 060253Z 00000KT 10SM BKN250 23/21 A3005 RMK AO2 SLP148 T02280206 51018
KTRI 060153Z 00000KT 10SM FEW020 SCT150 BKN250 23/21 A3004 RMK AO2 SLP145 T02330206